createdAt,value
2019-01-26T00:04:35.222Z,24.57
2019-01-26T00:09:29.803Z,22.30
2019-01-26T00:14:24.399Z,22.60
2019-01-26T00:19:19.001Z,20.23
2019-01-26T00:24:13.581Z,23.17
2019-01-26T00:29:08.175Z,21.67
2019-01-26T00:34:02.769Z,19.67
2019-01-26T00:38:57.360Z,19.80
2019-01-26T00:43:51.944Z,19.37
2019-01-26T00:48:46.553Z,22.03
2019-01-26T00:53:41.150Z,19.60
2019-01-26T00:58:35.741Z,19.03
2019-01-26T01:03:30.426Z,18.07
2019-01-26T01:08:25.137Z,18.93
2019-01-26T01:13:19.731Z,19.00
2019-01-26T01:18:14.315Z,21.00
2019-01-26T01:23:08.975Z,19.37
2019-01-26T01:28:03.623Z,20.13
2019-01-26T01:32:58.281Z,18.30
2019-01-26T01:37:52.876Z,17.77
2019-01-26T01:42:47.789Z,19.50
2019-01-26T01:47:42.386Z,19.03
2019-01-26T01:52:36.975Z,20.40
2019-01-26T01:57:31.721Z,18.20
2019-01-26T02:02:26.311Z,18.87
2019-01-26T02:07:20.898Z,20.13
2019-01-26T02:12:15.487Z,17.57
2019-01-26T02:17:10.335Z,18.23
2019-01-26T02:22:05.069Z,18.20
2019-01-26T02:26:59.650Z,22.60
2019-01-26T02:31:54.242Z,18.20
2019-01-26T02:36:48.826Z,20.33
2019-01-26T02:41:43.490Z,19.33
2019-01-26T02:46:38.085Z,20.87
2019-01-26T02:51:32.693Z,19.10
2019-01-26T02:56:27.300Z,19.03
2019-01-26T03:01:21.896Z,19.90
2019-01-26T03:06:16.490Z,19.43
2019-01-26T03:11:11.226Z,20.40
2019-01-26T03:16:06.363Z,20.90
2019-01-26T03:21:00.974Z,21.03
2019-01-26T03:25:55.599Z,21.07
2019-01-26T03:30:50.192Z,19.20
2019-01-26T03:35:44.780Z,21.03
2019-01-26T03:40:39.368Z,20.10
2019-01-26T03:45:34.027Z,19.37
2019-01-26T03:50:28.681Z,20.97
2019-01-26T03:55:23.496Z,21.97
2019-01-26T04:00:21.900Z,21.13
2019-01-26T04:05:16.988Z,20.97
2019-01-26T04:10:15.275Z,20.30
2019-01-26T04:15:19.799Z,20.53
2019-01-26T04:20:20.619Z,22.57
2019-01-26T04:25:15.413Z,22.77
2019-01-26T04:30:15.193Z,20.77
2019-01-26T04:35:11.076Z,21.20
2019-01-26T04:40:10.063Z,19.70
2019-01-26T04:45:07.304Z,19.47
2019-01-26T04:50:01.882Z,20.30
2019-01-26T04:54:56.484Z,21.93
2019-01-26T04:59:51.048Z,17.37
2019-01-26T05:04:45.674Z,19.80
2019-01-26T05:09:40.227Z,19.27
2019-01-26T05:14:34.822Z,20.53
2019-01-26T05:19:29.394Z,15.53
2019-01-26T05:24:23.990Z,15.40
2019-01-26T05:29:18.572Z,14.60
2019-01-26T05:34:13.184Z,14.40
2019-01-26T05:39:09.281Z,15.90
2019-01-26T05:44:03.870Z,16.30
2019-01-26T05:48:58.449Z,14.57
2019-01-26T05:53:53.044Z,16.47
2019-01-26T05:58:47.616Z,14.07
2019-01-26T06:03:42.201Z,16.17
2019-01-26T06:08:36.761Z,14.63
2019-01-26T06:13:31.359Z,18.97
2019-01-26T06:18:26.000Z,15.93
2019-01-26T06:23:20.602Z,20.30
2019-01-26T06:28:15.170Z,16.80
2019-01-26T06:33:09.764Z,16.30
2019-01-26T06:38:04.404Z,15.60
2019-01-26T06:42:59.017Z,15.53
2019-01-26T06:47:53.590Z,16.13
2019-01-26T06:52:48.180Z,14.20
2019-01-26T06:57:42.753Z,15.47
2019-01-26T07:02:37.356Z,12.70
2019-01-26T07:07:45.303Z,12.30
2019-01-26T07:12:39.881Z,15.27
2019-01-26T07:17:34.477Z,12.60
2019-01-26T07:22:29.046Z,13.40
2019-01-26T07:27:23.641Z,12.20
2019-01-26T07:32:18.250Z,13.80
2019-01-26T07:37:12.841Z,13.03
2019-01-26T07:42:07.537Z,11.87
2019-01-26T07:47:02.197Z,11.00
2019-01-26T07:51:56.783Z,12.27
2019-01-26T07:56:51.387Z,12.73
2019-01-26T08:01:46.027Z,13.13
2019-01-26T08:06:40.619Z,14.03
2019-01-26T08:11:35.250Z,16.10
2019-01-26T08:16:29.846Z,12.07
2019-01-26T08:21:24.436Z,11.43
2019-01-26T08:26:19.022Z,12.20
2019-01-26T08:31:13.697Z,11.87
2019-01-26T08:36:08.337Z,12.00
2019-01-26T08:41:02.929Z,10.87
2019-01-26T08:45:57.544Z,11.93
2019-01-26T08:50:52.210Z,12.47
2019-01-26T08:55:46.849Z,11.60
2019-01-26T09:00:41.515Z,10.83
2019-01-26T09:05:40.209Z,21.63
2019-01-26T09:10:34.933Z,12.77
2019-01-26T09:15:29.517Z,11.83
2019-01-26T09:20:24.133Z,9.67
2019-01-26T09:25:18.778Z,14.47
2019-01-26T09:30:22.131Z,12.70
2019-01-26T09:35:16.865Z,12.77
2019-01-26T09:40:23.497Z,13.77
2019-01-26T09:45:20.203Z,13.97
2019-01-26T09:50:15.980Z,11.43
2019-01-26T09:55:14.847Z,10.63
2019-01-26T10:00:16.528Z,11.53
2019-01-26T10:05:11.838Z,12.47
2019-01-26T10:10:11.213Z,13.40
2019-01-26T10:15:10.774Z,13.10
2019-01-26T10:20:12.635Z,12.43
2019-01-26T10:25:11.405Z,12.87
2019-01-26T10:30:10.664Z,13.33
2019-01-26T10:35:07.365Z,11.77
2019-01-26T10:40:02.832Z,13.40
2019-01-26T10:44:57.562Z,11.77
2019-01-26T10:49:52.160Z,13.83
2019-01-26T10:54:46.754Z,11.73
2019-01-26T10:59:41.396Z,12.23
2019-01-26T11:04:35.984Z,11.57
2019-01-26T11:09:30.574Z,12.87
2019-01-26T11:14:25.163Z,13.40
2019-01-26T11:19:19.812Z,11.77
2019-01-26T11:24:14.463Z,11.07
2019-01-26T11:29:09.218Z,11.43
2019-01-26T11:34:04.356Z,13.10
2019-01-26T11:38:58.949Z,11.67
2019-01-26T11:43:53.520Z,10.93
2019-01-26T11:48:48.292Z,10.87
2019-01-26T11:53:42.928Z,9.77
2019-01-26T11:58:37.591Z,10.87
2019-01-26T12:03:33.798Z,11.40
2019-01-26T12:08:28.388Z,11.60
2019-01-26T12:13:22.967Z,11.60
2019-01-26T12:18:17.639Z,10.93
2019-01-26T12:23:12.440Z,10.97
2019-01-26T12:28:07.089Z,13.30
2019-01-26T12:33:01.653Z,12.17
2019-01-26T12:37:56.264Z,12.60
2019-01-26T12:42:50.839Z,12.30
2019-01-26T12:47:45.499Z,12.40
2019-01-26T12:52:41.678Z,11.27
2019-01-26T12:57:36.258Z,13.73
2019-01-26T13:02:30.828Z,12.73
2019-01-26T13:07:25.416Z,10.77
2019-01-26T13:12:20.178Z,12.07
2019-01-26T13:17:14.907Z,11.90
2019-01-26T13:22:09.680Z,9.50
2019-01-26T13:27:04.334Z,10.57
2019-01-26T13:31:58.934Z,11.47
2019-01-26T13:36:53.514Z,10.47
2019-01-26T13:41:48.087Z,10.57
2019-01-26T13:46:42.674Z,13.60
2019-01-26T13:51:37.251Z,11.77
2019-01-26T13:56:31.831Z,12.30
2019-01-26T14:01:26.504Z,12.43
2019-01-26T14:06:21.096Z,10.27
2019-01-26T14:11:15.694Z,11.30
2019-01-26T14:16:10.285Z,10.90
2019-01-26T14:21:04.996Z,11.30
2019-01-26T14:25:59.580Z,14.10
2019-01-26T14:30:56.010Z,11.57
2019-01-26T14:35:50.601Z,14.07
2019-01-26T14:40:45.167Z,13.53
2019-01-26T14:45:39.752Z,12.87
2019-01-26T14:50:34.399Z,15.13
2019-01-26T14:55:31.710Z,16.63
2019-01-26T15:00:38.196Z,11.77
2019-01-26T15:05:32.927Z,11.10
2019-01-26T15:10:27.651Z,12.30
2019-01-26T15:15:22.959Z,13.33
2019-01-26T15:20:30.996Z,12.10
2019-01-26T15:25:25.785Z,11.70
2019-01-26T15:30:27.473Z,15.57
2019-01-26T15:35:22.154Z,10.67
2019-01-26T15:40:16.982Z,13.93
2019-01-26T15:45:22.021Z,11.73
2019-01-26T15:50:16.823Z,10.50
2019-01-26T15:55:15.961Z,13.47
2019-01-26T16:00:15.202Z,11.07
2019-01-26T16:05:10.589Z,9.50
2019-01-26T16:10:09.402Z,11.43
2019-01-26T16:15:05.827Z,12.43
2019-01-26T16:20:00.421Z,14.27
2019-01-26T16:24:55.020Z,11.97
2019-01-26T16:29:49.642Z,10.93
2019-01-26T16:34:44.242Z,11.83
2019-01-26T16:39:38.836Z,10.30
2019-01-26T16:44:33.434Z,12.37
2019-01-26T16:49:28.046Z,13.03
2019-01-26T16:54:22.640Z,9.70
2019-01-26T16:59:17.212Z,13.50
2019-01-26T17:04:11.815Z,11.43
2019-01-26T17:09:09.581Z,12.73
2019-01-26T17:14:04.382Z,11.30
2019-01-26T17:18:59.034Z,12.93
2019-01-26T17:23:53.624Z,12.90
2019-01-26T17:28:48.228Z,12.73
2019-01-26T17:33:42.815Z,11.77
2019-01-26T17:38:37.401Z,11.57
2019-01-26T17:43:32.001Z,13.83
2019-01-26T17:48:26.623Z,11.40
2019-01-26T17:53:21.232Z,12.57
2019-01-26T17:58:15.824Z,12.20
2019-01-26T18:03:10.427Z,12.47
2019-01-26T18:08:05.182Z,12.67
2019-01-26T18:12:59.869Z,12.43
2019-01-26T18:17:54.472Z,13.63
2019-01-26T18:22:49.211Z,13.30
2019-01-26T18:27:44.009Z,14.57
2019-01-26T18:32:38.708Z,13.57
2019-01-26T18:37:33.323Z,17.07
2019-01-26T18:42:27.919Z,14.20
2019-01-26T18:47:22.503Z,19.60
2019-01-26T18:52:17.107Z,19.83
2019-01-26T18:57:11.730Z,19.57
2019-01-26T19:02:06.532Z,19.03
2019-01-26T19:07:01.159Z,19.83
2019-01-26T19:11:55.766Z,18.10
2019-01-26T19:16:50.425Z,16.83
2019-01-26T19:21:45.018Z,18.80
2019-01-26T19:26:39.620Z,16.53
2019-01-26T19:31:34.303Z,18.37
2019-01-26T19:36:28.879Z,18.70
2019-01-26T19:41:23.462Z,16.77
2019-01-26T19:46:18.194Z,16.57
2019-01-26T19:51:12.868Z,16.03
2019-01-26T19:56:07.601Z,15.90
2019-01-26T20:01:02.336Z,18.93
2019-01-26T20:05:57.089Z,21.97
2019-01-26T20:10:51.702Z,22.43
2019-01-26T20:15:46.318Z,21.10
2019-01-26T20:20:41.637Z,19.30
2019-01-26T20:25:36.750Z,22.10
2019-01-26T20:30:34.573Z,19.30
2019-01-26T20:35:29.367Z,18.83
2019-01-26T20:40:25.086Z,19.70
2019-01-26T20:45:26.691Z,15.63
2019-01-26T20:50:21.507Z,17.80
2019-01-26T20:55:16.173Z,17.67
2019-01-26T21:00:20.843Z,17.50
2019-01-26T21:05:15.503Z,18.33
2019-01-26T21:10:23.621Z,18.53
2019-01-26T21:15:18.431Z,19.60
2019-01-26T21:20:22.238Z,21.13
2019-01-26T21:25:16.969Z,16.47
2019-01-26T21:30:21.755Z,18.53
2019-01-26T21:35:16.418Z,19.33
2019-01-26T21:40:15.757Z,19.53
2019-01-26T21:45:14.067Z,22.53
2019-01-26T21:50:15.675Z,20.77
2019-01-26T21:55:10.973Z,20.53
2019-01-26T22:00:21.743Z,20.60
2019-01-26T22:05:16.397Z,15.57
2019-01-26T22:10:15.587Z,12.60
2019-01-26T22:15:17.091Z,11.07
2019-01-26T22:20:24.865Z,9.87
2019-01-26T22:25:20.655Z,9.50
2019-01-26T22:30:31.134Z,8.23
2019-01-26T22:35:25.864Z,8.50
2019-01-26T22:40:29.963Z,6.53
2019-01-26T22:45:26.070Z,8.03
2019-01-26T22:50:26.684Z,8.00
2019-01-26T22:55:22.794Z,8.40
2019-01-26T23:00:41.343Z,8.43
2019-01-26T23:06:24.110Z,8.07
2019-01-26T23:11:32.278Z,7.47
2019-01-26T23:16:56.801Z,7.47
2019-01-26T23:22:25.973Z,7.13
2019-01-26T23:27:42.936Z,7.57
2019-01-26T23:32:37.530Z,8.60
2019-01-26T23:37:32.140Z,7.60
2019-01-26T23:42:26.760Z,9.17
2019-01-26T23:47:21.331Z,6.67
2019-01-26T23:52:16.006Z,6.53
2019-01-26T23:57:10.596Z,5.20
